sensor_id;sensor_type;location;lat;lon;timestamp;P1;durP1;ratioP1;P2;durP2;ratioP2
15327;SDS011;7764;51.430;6.840;2024-02-15T00:02:03;18.60;;;10.50;;
15327;SDS011;7764;51.430;6.840;2024-02-15T00:04:30;19.03;;;10.47;;
15327;SDS011;7764;51.430;6.840;2024-02-15T00:06:58;15.93;;;10.63;;
15327;SDS011;7764;51.430;6.840;2024-02-15T00:09:27;20.00;;;12.13;;
15327;SDS011;7764;51.430;6.840;2024-02-15T00:11:55;20.37;;;11.43;;
15327;SDS011;7764;51.430;6.840;2024-02-15T00:14:24;19.60;;;11.90;;
15327;SDS011;7764;51.430;6.840;2024-02-15T00:16:53;20.70;;;10.87;;
15327;SDS011;7764;51.430;6.840;2024-02-15T00:19:20;18.40;;;11.13;;
15327;SDS011;7764;51.430;6.840;2024-02-15T00:21:46;20.03;;;11.47;;
15327;SDS011;7764;51.430;6.840;2024-02-15T00:24:13;20.40;;;11.60;;
15327;SDS011;7764;51.430;6.840;2024-02-15T00:26:40;21.10;;;11.70;;
15327;SDS011;7764;51.430;6.840;2024-02-15T00:29:09;21.47;;;12.40;;
15327;SDS011;7764;51.430;6.840;2024-02-15T00:31:37;20.37;;;12.70;;
15327;SDS011;7764;51.430;6.840;2024-02-15T00:34:05;20.20;;;11.73;;
15327;SDS011;7764;51.430;6.840;2024-02-15T00:36:33;22.30;;;13.33;;
15327;SDS011;7764;51.430;6.840;2024-02-15T00:39:00;22.00;;;12.67;;
15327;SDS011;7764;51.430;6.840;2024-02-15T00:41:29;21.70;;;13.87;;
15327;SDS011;7764;51.430;6.840;2024-02-15T00:43:58;20.67;;;13.53;;
15327;SDS011;7764;51.430;6.840;2024-02-15T00:46:26;21.37;;;13.40;;
15327;SDS011;7764;51.430;6.840;2024-02-15T00:48:54;18.90;;;12.87;;
15327;SDS011;7764;51.430;6.840;2024-02-15T00:51:21;25.90;;;13.63;;
15327;SDS011;7764;51.430;6.840;2024-02-15T00:53:47;20.20;;;13.67;;
15327;SDS011;7764;51.430;6.840;2024-02-15T00:56:14;21.87;;;13.90;;
15327;SDS011;7764;51.430;6.840;2024-02-15T00:58:41;22.37;;;13.90;;
15327;SDS011;7764;51.430;6.840;2024-02-15T01:01:08;24.57;;;14.10;;
15327;SDS011;7764;51.430;6.840;2024-02-15T01:03:37;25.23;;;14.40;;
15327;SDS011;7764;51.430;6.840;2024-02-15T01:06:04;20.23;;;14.77;;
15327;SDS011;7764;51.430;6.840;2024-02-15T01:08:31;26.53;;;14.07;;
15327;SDS011;7764;51.430;6.840;2024-02-15T01:10:59;19.87;;;12.47;;
15327;SDS011;7764;51.430;6.840;2024-02-15T01:13:26;21.13;;;13.03;;
15327;SDS011;7764;51.430;6.840;2024-02-15T01:15:52;26.03;;;14.13;;
15327;SDS011;7764;51.430;6.840;2024-02-15T01:18:20;25.23;;;13.60;;
15327;SDS011;7764;51.430;6.840;2024-02-15T01:20:48;21.37;;;13.17;;
15327;SDS011;7764;51.430;6.840;2024-02-15T01:23:16;26.63;;;13.60;;
15327;SDS011;7764;51.430;6.840;2024-02-15T01:25:43;22.00;;;13.77;;
15327;SDS011;7764;51.430;6.840;2024-02-15T01:28:10;24.43;;;13.13;;
15327;SDS011;7764;51.430;6.840;2024-02-15T01:30:37;21.60;;;13.17;;
15327;SDS011;7764;51.430;6.840;2024-02-15T01:33:04;20.33;;;13.10;;
15327;SDS011;7764;51.430;6.840;2024-02-15T01:35:31;27.93;;;13.50;;
15327;SDS011;7764;51.430;6.840;2024-02-15T01:37:59;23.73;;;13.53;;
15327;SDS011;7764;51.430;6.840;2024-02-15T01:40:26;23.00;;;13.57;;
15327;SDS011;7764;51.430;6.840;2024-02-15T01:42:53;23.03;;;12.50;;
15327;SDS011;7764;51.430;6.840;2024-02-15T01:45:20;21.17;;;13.33;;
15327;SDS011;7764;51.430;6.840;2024-02-15T01:47:47;21.83;;;12.90;;
15327;SDS011;7764;51.430;6.840;2024-02-15T01:50:15;21.27;;;12.70;;
15327;SDS011;7764;51.430;6.840;2024-02-15T01:52:44;20.90;;;12.27;;
15327;SDS011;7764;51.430;6.840;2024-02-15T01:55:14;23.90;;;12.57;;
15327;SDS011;7764;51.430;6.840;2024-02-15T01:57:44;22.27;;;12.33;;
15327;SDS011;7764;51.430;6.840;2024-02-15T02:00:11;21.73;;;12.27;;
15327;SDS011;7764;51.430;6.840;2024-02-15T02:02:41;20.20;;;11.53;;
15327;SDS011;7764;51.430;6.840;2024-02-15T02:05:08;20.57;;;10.93;;
15327;SDS011;7764;51.430;6.840;2024-02-15T02:07:35;18.20;;;11.00;;
15327;SDS011;7764;51.430;6.840;2024-02-15T02:10:03;21.33;;;10.83;;
15327;SDS011;7764;51.430;6.840;2024-02-15T02:12:33;19.17;;;10.93;;
15327;SDS011;7764;51.430;6.840;2024-02-15T02:15:00;23.10;;;11.53;;
15327;SDS011;7764;51.430;6.840;2024-02-15T02:17:27;16.90;;;9.87;;
15327;SDS011;7764;51.430;6.840;2024-02-15T02:19:54;23.13;;;10.33;;
15327;SDS011;7764;51.430;6.840;2024-02-15T02:22:22;24.93;;;11.53;;
15327;SDS011;7764;51.430;6.840;2024-02-15T02:24:58;17.73;;;10.07;;
15327;SDS011;7764;51.430;6.840;2024-02-15T02:27:28;17.83;;;10.07;;
15327;SDS011;7764;51.430;6.840;2024-02-15T02:29:56;20.13;;;10.23;;
15327;SDS011;7764;51.430;6.840;2024-02-15T02:32:24;17.57;;;9.73;;
15327;SDS011;7764;51.430;6.840;2024-02-15T02:34:52;14.80;;;9.57;;
15327;SDS011;7764;51.430;6.840;2024-02-15T02:37:22;19.93;;;11.40;;
15327;SDS011;7764;51.430;6.840;2024-02-15T02:39:49;17.33;;;8.70;;
15327;SDS011;7764;51.430;6.840;2024-02-15T02:42:17;17.50;;;8.80;;
15327;SDS011;7764;51.430;6.840;2024-02-15T02:44:46;18.83;;;8.63;;
15327;SDS011;7764;51.430;6.840;2024-02-15T02:47:13;16.37;;;8.73;;
15327;SDS011;7764;51.430;6.840;2024-02-15T02:49:39;16.20;;;8.77;;
15327;SDS011;7764;51.430;6.840;2024-02-15T02:52:07;17.90;;;8.43;;
15327;SDS011;7764;51.430;6.840;2024-02-15T02:54:34;16.77;;;8.07;;
15327;SDS011;7764;51.430;6.840;2024-02-15T02:57:01;16.93;;;8.77;;
15327;SDS011;7764;51.430;6.840;2024-02-15T02:59:33;16.73;;;7.70;;
15327;SDS011;7764;51.430;6.840;2024-02-15T03:02:01;15.50;;;7.93;;
15327;SDS011;7764;51.430;6.840;2024-02-15T03:04:28;18.27;;;7.07;;
15327;SDS011;7764;51.430;6.840;2024-02-15T03:06:55;17.77;;;7.57;;
15327;SDS011;7764;51.430;6.840;2024-02-15T03:09:22;17.17;;;7.57;;
15327;SDS011;7764;51.430;6.840;2024-02-15T03:11:54;14.90;;;7.43;;
15327;SDS011;7764;51.430;6.840;2024-02-15T03:14:22;17.70;;;8.27;;
15327;SDS011;7764;51.430;6.840;2024-02-15T03:16:51;14.63;;;7.53;;
15327;SDS011;7764;51.430;6.840;2024-02-15T03:19:20;13.43;;;7.10;;
15327;SDS011;7764;51.430;6.840;2024-02-15T03:21:48;13.67;;;7.60;;
15327;SDS011;7764;51.430;6.840;2024-02-15T03:24:15;14.70;;;7.70;;
15327;SDS011;7764;51.430;6.840;2024-02-15T03:26:42;14.30;;;7.83;;
15327;SDS011;7764;51.430;6.840;2024-02-15T03:29:09;15.13;;;7.33;;
15327;SDS011;7764;51.430;6.840;2024-02-15T03:31:36;17.20;;;7.07;;
15327;SDS011;7764;51.430;6.840;2024-02-15T03:34:05;14.93;;;7.67;;
15327;SDS011;7764;51.430;6.840;2024-02-15T03:36:32;14.07;;;7.47;;
15327;SDS011;7764;51.430;6.840;2024-02-15T03:38:59;16.27;;;7.67;;
15327;SDS011;7764;51.430;6.840;2024-02-15T03:41:27;17.03;;;7.00;;
15327;SDS011;7764;51.430;6.840;2024-02-15T03:43:56;15.73;;;7.47;;
15327;SDS011;7764;51.430;6.840;2024-02-15T03:46:24;14.20;;;6.93;;
15327;SDS011;7764;51.430;6.840;2024-02-15T03:48:51;15.47;;;6.83;;
15327;SDS011;7764;51.430;6.840;2024-02-15T03:51:20;15.83;;;7.20;;
15327;SDS011;7764;51.430;6.840;2024-02-15T03:53:49;16.47;;;7.10;;
15327;SDS011;7764;51.430;6.840;2024-02-15T03:56:17;14.53;;;7.07;;
15327;SDS011;7764;51.430;6.840;2024-02-15T03:58:44;14.50;;;6.90;;
15327;SDS011;7764;51.430;6.840;2024-02-15T04:01:11;13.23;;;6.67;;
15327;SDS011;7764;51.430;6.840;2024-02-15T04:03:40;15.73;;;7.07;;
15327;SDS011;7764;51.430;6.840;2024-02-15T04:06:07;15.23;;;6.67;;
15327;SDS011;7764;51.430;6.840;2024-02-15T04:08:37;17.03;;;7.40;;
15327;SDS011;7764;51.430;6.840;2024-02-15T04:11:04;12.80;;;6.80;;
15327;SDS011;7764;51.430;6.840;2024-02-15T04:13:32;16.20;;;8.47;;
15327;SDS011;7764;51.430;6.840;2024-02-15T04:15:59;14.23;;;6.67;;
15327;SDS011;7764;51.430;6.840;2024-02-15T04:18:26;15.87;;;7.13;;
15327;SDS011;7764;51.430;6.840;2024-02-15T04:20:57;11.03;;;6.30;;
15327;SDS011;7764;51.430;6.840;2024-02-15T04:23:24;14.20;;;6.70;;
15327;SDS011;7764;51.430;6.840;2024-02-15T04:25:52;10.87;;;6.10;;
15327;SDS011;7764;51.430;6.840;2024-02-15T04:28:19;15.43;;;6.47;;
15327;SDS011;7764;51.430;6.840;2024-02-15T04:30:46;10.80;;;6.27;;
15327;SDS011;7764;51.430;6.840;2024-02-15T04:33:13;11.97;;;6.20;;
15327;SDS011;7764;51.430;6.840;2024-02-15T04:35:40;15.17;;;6.57;;
15327;SDS011;7764;51.430;6.840;2024-02-15T04:38:08;43.23;;;29.20;;
15327;SDS011;7764;51.430;6.840;2024-02-15T04:40:35;11.90;;;6.10;;
15327;SDS011;7764;51.430;6.840;2024-02-15T04:43:04;11.50;;;5.53;;
15327;SDS011;7764;51.430;6.840;2024-02-15T04:45:31;12.37;;;6.03;;
15327;SDS011;7764;51.430;6.840;2024-02-15T04:47:58;11.40;;;6.27;;
15327;SDS011;7764;51.430;6.840;2024-02-15T04:50:27;11.33;;;6.27;;
15327;SDS011;7764;51.430;6.840;2024-02-15T04:52:55;10.67;;;5.60;;
15327;SDS011;7764;51.430;6.840;2024-02-15T04:55:22;12.00;;;6.00;;
15327;SDS011;7764;51.430;6.840;2024-02-15T04:57:51;11.53;;;5.60;;
15327;SDS011;7764;51.430;6.840;2024-02-15T05:00:22;12.50;;;5.87;;
15327;SDS011;7764;51.430;6.840;2024-02-15T05:02:50;10.93;;;5.47;;
15327;SDS011;7764;51.430;6.840;2024-02-15T05:05:18;12.43;;;5.60;;
15327;SDS011;7764;51.430;6.840;2024-02-15T05:07:49;8.97;;;5.13;;
15327;SDS011;7764;51.430;6.840;2024-02-15T05:10:16;10.70;;;5.67;;
15327;SDS011;7764;51.430;6.840;2024-02-15T05:12:43;10.30;;;5.00;;
15327;SDS011;7764;51.430;6.840;2024-02-15T05:15:12;10.97;;;4.57;;
15327;SDS011;7764;51.430;6.840;2024-02-15T05:17:44;9.17;;;4.63;;
15327;SDS011;7764;51.430;6.840;2024-02-15T05:20:11;7.17;;;4.53;;
15327;SDS011;7764;51.430;6.840;2024-02-15T05:22:38;10.20;;;4.30;;
15327;SDS011;7764;51.430;6.840;2024-02-15T05:25:09;12.27;;;4.67;;
15327;SDS011;7764;51.430;6.840;2024-02-15T05:27:37;10.20;;;4.20;;
15327;SDS011;7764;51.430;6.840;2024-02-15T05:30:04;7.07;;;4.00;;
15327;SDS011;7764;51.430;6.840;2024-02-15T05:32:32;10.07;;;3.80;;
15327;SDS011;7764;51.430;6.840;2024-02-15T05:35:09;10.97;;;4.40;;
15327;SDS011;7764;51.430;6.840;2024-02-15T05:37:36;9.30;;;4.37;;
15327;SDS011;7764;51.430;6.840;2024-02-15T05:40:03;8.77;;;3.87;;
15327;SDS011;7764;51.430;6.840;2024-02-15T05:42:32;7.73;;;3.87;;
15327;SDS011;7764;51.430;6.840;2024-02-15T05:45:27;7.30;;;4.37;;
15327;SDS011;7764;51.430;6.840;2024-02-15T05:47:57;8.30;;;4.13;;
15327;SDS011;7764;51.430;6.840;2024-02-15T05:50:26;7.87;;;4.53;;
15327;SDS011;7764;51.430;6.840;2024-02-15T05:52:55;7.60;;;3.80;;
15327;SDS011;7764;51.430;6.840;2024-02-15T05:55:23;12.63;;;5.33;;
15327;SDS011;7764;51.430;6.840;2024-02-15T05:57:51;11.60;;;6.50;;
15327;SDS011;7764;51.430;6.840;2024-02-15T06:00:19;8.70;;;4.97;;
15327;SDS011;7764;51.430;6.840;2024-02-15T06:02:46;10.23;;;5.90;;
15327;SDS011;7764;51.430;6.840;2024-02-15T06:05:13;11.00;;;4.67;;
15327;SDS011;7764;51.430;6.840;2024-02-15T06:07:43;10.00;;;4.53;;
15327;SDS011;7764;51.430;6.840;2024-02-15T06:10:11;8.30;;;4.57;;
15327;SDS011;7764;51.430;6.840;2024-02-15T06:12:39;14.20;;;5.30;;
15327;SDS011;7764;51.430;6.840;2024-02-15T06:15:07;10.70;;;4.47;;
15327;SDS011;7764;51.430;6.840;2024-02-15T06:17:39;11.97;;;5.30;;
15327;SDS011;7764;51.430;6.840;2024-02-15T06:20:09;8.60;;;4.83;;
15327;SDS011;7764;51.430;6.840;2024-02-15T06:22:39;8.37;;;4.83;;
15327;SDS011;7764;51.430;6.840;2024-02-15T06:25:08;11.93;;;5.40;;
15327;SDS011;7764;51.430;6.840;2024-02-15T06:27:36;9.63;;;4.80;;
15327;SDS011;7764;51.430;6.840;2024-02-15T06:30:06;9.77;;;5.13;;
15327;SDS011;7764;51.430;6.840;2024-02-15T06:32:51;10.43;;;6.10;;
15327;SDS011;7764;51.430;6.840;2024-02-15T06:35:35;11.40;;;6.07;;
15327;SDS011;7764;51.430;6.840;2024-02-15T06:38:20;10.40;;;4.37;;
15327;SDS011;7764;51.430;6.840;2024-02-15T06:41:06;9.43;;;5.63;;
15327;SDS011;7764;51.430;6.840;2024-02-15T06:43:32;9.17;;;4.83;;
15327;SDS011;7764;51.430;6.840;2024-02-15T06:46:00;9.37;;;5.50;;
15327;SDS011;7764;51.430;6.840;2024-02-15T06:48:26;11.93;;;5.53;;
15327;SDS011;7764;51.430;6.840;2024-02-15T06:50:54;11.43;;;5.53;;
15327;SDS011;7764;51.430;6.840;2024-02-15T06:53:21;10.70;;;5.53;;
15327;SDS011;7764;51.430;6.840;2024-02-15T06:55:47;11.07;;;5.53;;
15327;SDS011;7764;51.430;6.840;2024-02-15T06:58:16;11.23;;;5.00;;
15327;SDS011;7764;51.430;6.840;2024-02-15T07:00:45;12.10;;;5.30;;
15327;SDS011;7764;51.430;6.840;2024-02-15T07:03:14;10.87;;;5.00;;
15327;SDS011;7764;51.430;6.840;2024-02-15T07:05:41;9.03;;;4.83;;
15327;SDS011;7764;51.430;6.840;2024-02-15T07:08:08;10.57;;;5.50;;
15327;SDS011;7764;51.430;6.840;2024-02-15T07:10:37;11.20;;;5.17;;
15327;SDS011;7764;51.430;6.840;2024-02-15T07:13:04;12.77;;;5.70;;
15327;SDS011;7764;51.430;6.840;2024-02-15T07:15:32;10.90;;;4.90;;
15327;SDS011;7764;51.430;6.840;2024-02-15T07:18:03;11.70;;;5.00;;
15327;SDS011;7764;51.430;6.840;2024-02-15T07:20:31;9.60;;;5.13;;
15327;SDS011;7764;51.430;6.840;2024-02-15T07:22:58;11.53;;;4.90;;
15327;SDS011;7764;51.430;6.840;2024-02-15T07:25:25;11.20;;;5.23;;
15327;SDS011;7764;51.430;6.840;2024-02-15T07:27:52;12.43;;;5.23;;
15327;SDS011;7764;51.430;6.840;2024-02-15T07:30:19;10.33;;;5.03;;
15327;SDS011;7764;51.430;6.840;2024-02-15T07:32:49;11.60;;;5.33;;
15327;SDS011;7764;51.430;6.840;2024-02-15T07:35:16;14.50;;;5.70;;
15327;SDS011;7764;51.430;6.840;2024-02-15T07:37:50;9.67;;;5.37;;
15327;SDS011;7764;51.430;6.840;2024-02-15T07:40:18;10.03;;;5.77;;
15327;SDS011;7764;51.430;6.840;2024-02-15T07:42:47;13.40;;;6.57;;
15327;SDS011;7764;51.430;6.840;2024-02-15T07:45:14;14.50;;;6.10;;
15327;SDS011;7764;51.430;6.840;2024-02-15T07:47:43;15.90;;;7.90;;
15327;SDS011;7764;51.430;6.840;2024-02-15T07:50:14;8.97;;;4.70;;
15327;SDS011;7764;51.430;6.840;2024-02-15T07:52:45;9.97;;;5.10;;
15327;SDS011;7764;51.430;6.840;2024-02-15T07:55:12;14.77;;;6.00;;
15327;SDS011;7764;51.430;6.840;2024-02-15T07:57:39;7.77;;;4.73;;
15327;SDS011;7764;51.430;6.840;2024-02-15T08:00:06;12.10;;;5.50;;
15327;SDS011;7764;51.430;6.840;2024-02-15T08:02:37;13.27;;;5.10;;
15327;SDS011;7764;51.430;6.840;2024-02-15T08:05:05;12.33;;;5.20;;
15327;SDS011;7764;51.430;6.840;2024-02-15T08:07:36;11.90;;;5.73;;
15327;SDS011;7764;51.430;6.840;2024-02-15T08:10:04;10.60;;;4.63;;
15327;SDS011;7764;51.430;6.840;2024-02-15T08:12:37;11.47;;;4.87;;
15327;SDS011;7764;51.430;6.840;2024-02-15T08:15:05;17.53;;;7.70;;
15327;SDS011;7764;51.430;6.840;2024-02-15T08:17:36;13.23;;;5.23;;
15327;SDS011;7764;51.430;6.840;2024-02-15T08:20:05;8.00;;;4.40;;
15327;SDS011;7764;51.430;6.840;2024-02-15T08:22:33;10.17;;;4.57;;
15327;SDS011;7764;51.430;6.840;2024-02-15T08:25:02;8.63;;;4.37;;
15327;SDS011;7764;51.430;6.840;2024-02-15T08:27:30;9.37;;;4.40;;
15327;SDS011;7764;51.430;6.840;2024-02-15T08:29:57;7.13;;;4.23;;
15327;SDS011;7764;51.430;6.840;2024-02-15T08:32:24;10.17;;;4.47;;
15327;SDS011;7764;51.430;6.840;2024-02-15T08:34:51;10.27;;;4.90;;
15327;SDS011;7764;51.430;6.840;2024-02-15T08:37:18;10.20;;;4.90;;
15327;SDS011;7764;51.430;6.840;2024-02-15T08:39:45;10.03;;;4.57;;
15327;SDS011;7764;51.430;6.840;2024-02-15T08:42:13;11.00;;;5.43;;
15327;SDS011;7764;51.430;6.840;2024-02-15T08:44:40;11.70;;;4.63;;
15327;SDS011;7764;51.430;6.840;2024-02-15T08:47:06;11.53;;;5.10;;
15327;SDS011;7764;51.430;6.840;2024-02-15T08:49:33;10.30;;;5.17;;
15327;SDS011;7764;51.430;6.840;2024-02-15T08:52:00;12.17;;;4.87;;
15327;SDS011;7764;51.430;6.840;2024-02-15T08:54:27;11.50;;;4.63;;
15327;SDS011;7764;51.430;6.840;2024-02-15T08:56:54;20.47;;;11.50;;
15327;SDS011;7764;51.430;6.840;2024-02-15T08:59:22;11.53;;;4.77;;
15327;SDS011;7764;51.430;6.840;2024-02-15T09:01:50;15.30;;;4.80;;
15327;SDS011;7764;51.430;6.840;2024-02-15T09:04:18;8.40;;;4.60;;
15327;SDS011;7764;51.430;6.840;2024-02-15T09:06:46;9.90;;;4.37;;
15327;SDS011;7764;51.430;6.840;2024-02-15T09:09:13;13.10;;;4.43;;
15327;SDS011;7764;51.430;6.840;2024-02-15T09:11:39;12.60;;;4.30;;
15327;SDS011;7764;51.430;6.840;2024-02-15T09:14:06;11.07;;;4.60;;
15327;SDS011;7764;51.430;6.840;2024-02-15T09:16:36;10.03;;;4.40;;
15327;SDS011;7764;51.430;6.840;2024-02-15T09:19:04;15.93;;;9.53;;
15327;SDS011;7764;51.430;6.840;2024-02-15T09:21:31;12.67;;;5.70;;
15327;SDS011;7764;51.430;6.840;2024-02-15T09:23:59;10.87;;;4.63;;
15327;SDS011;7764;51.430;6.840;2024-02-15T09:26:26;10.70;;;4.47;;
15327;SDS011;7764;51.430;6.840;2024-02-15T09:28:53;9.20;;;4.00;;
15327;SDS011;7764;51.430;6.840;2024-02-15T09:31:20;10.53;;;4.00;;
15327;SDS011;7764;51.430;6.840;2024-02-15T09:33:48;11.63;;;3.83;;
15327;SDS011;7764;51.430;6.840;2024-02-15T09:36:15;9.27;;;3.63;;
15327;SDS011;7764;51.430;6.840;2024-02-15T09:38:42;7.10;;;3.63;;
15327;SDS011;7764;51.430;6.840;2024-02-15T09:41:10;11.80;;;4.10;;
15327;SDS011;7764;51.430;6.840;2024-02-15T09:43:37;10.93;;;3.63;;
15327;SDS011;7764;51.430;6.840;2024-02-15T09:46:04;9.03;;;3.63;;
15327;SDS011;7764;51.430;6.840;2024-02-15T09:48:31;9.97;;;3.90;;
15327;SDS011;7764;51.430;6.840;2024-02-15T09:51:01;9.77;;;3.20;;
15327;SDS011;7764;51.430;6.840;2024-02-15T09:53:29;8.50;;;3.33;;
15327;SDS011;7764;51.430;6.840;2024-02-15T09:55:57;8.53;;;3.40;;
15327;SDS011;7764;51.430;6.840;2024-02-15T09:58:29;5.37;;;3.00;;
15327;SDS011;7764;51.430;6.840;2024-02-15T10:00:59;7.37;;;3.07;;
15327;SDS011;7764;51.430;6.840;2024-02-15T10:03:29;6.80;;;2.97;;
15327;SDS011;7764;51.430;6.840;2024-02-15T10:05:57;8.10;;;3.30;;
15327;SDS011;7764;51.430;6.840;2024-02-15T10:08:25;8.83;;;3.07;;
15327;SDS011;7764;51.430;6.840;2024-02-15T10:11:04;8.03;;;3.30;;
15327;SDS011;7764;51.430;6.840;2024-02-15T10:13:33;7.47;;;3.07;;
15327;SDS011;7764;51.430;6.840;2024-02-15T10:16:01;8.10;;;3.13;;
15327;SDS011;7764;51.430;6.840;2024-02-15T10:18:40;8.33;;;3.30;;
15327;SDS011;7764;51.430;6.840;2024-02-15T10:21:07;8.50;;;3.40;;
15327;SDS011;7764;51.430;6.840;2024-02-15T10:23:37;8.53;;;4.20;;
15327;SDS011;7764;51.430;6.840;2024-02-15T10:26:18;8.43;;;3.13;;
15327;SDS011;7764;51.430;6.840;2024-02-15T10:28:49;7.20;;;3.13;;
15327;SDS011;7764;51.430;6.840;2024-02-15T10:31:34;8.60;;;3.00;;
15327;SDS011;7764;51.430;6.840;2024-02-15T10:34:04;8.10;;;3.23;;
15327;SDS011;7764;51.430;6.840;2024-02-15T10:36:32;7.50;;;3.33;;
15327;SDS011;7764;51.430;6.840;2024-02-15T10:39:14;6.33;;;2.67;;
15327;SDS011;7764;51.430;6.840;2024-02-15T10:41:44;6.63;;;2.93;;
15327;SDS011;7764;51.430;6.840;2024-02-15T10:44:16;8.33;;;3.20;;
15327;SDS011;7764;51.430;6.840;2024-02-15T10:46:47;5.53;;;2.70;;
15327;SDS011;7764;51.430;6.840;2024-02-15T10:49:16;6.13;;;3.30;;
15327;SDS011;7764;51.430;6.840;2024-02-15T10:51:44;5.67;;;3.30;;
15327;SDS011;7764;51.430;6.840;2024-02-15T10:54:23;10.70;;;4.40;;
15327;SDS011;7764;51.430;6.840;2024-02-15T10:57:12;9.70;;;3.40;;
15327;SDS011;7764;51.430;6.840;2024-02-15T10:59:43;10.90;;;3.00;;
15327;SDS011;7764;51.430;6.840;2024-02-15T11:02:26;10.80;;;3.70;;
15327;SDS011;7764;51.430;6.840;2024-02-15T11:04:55;7.90;;;3.30;;
15327;SDS011;7764;51.430;6.840;2024-02-15T11:07:28;6.27;;;3.03;;
15327;SDS011;7764;51.430;6.840;2024-02-15T11:09:58;6.60;;;2.80;;
15327;SDS011;7764;51.430;6.840;2024-02-15T11:12:25;6.47;;;2.90;;
15327;SDS011;7764;51.430;6.840;2024-02-15T11:14:56;7.00;;;2.90;;
15327;SDS011;7764;51.430;6.840;2024-02-15T11:20:28;7.37;;;3.03;;
15327;SDS011;7764;51.430;6.840;2024-02-15T11:23:14;6.33;;;2.57;;
15327;SDS011;7764;51.430;6.840;2024-02-15T11:25:53;8.77;;;3.10;;
15327;SDS011;7764;51.430;6.840;2024-02-15T11:34:43;5.72;;;2.63;;
15327;SDS011;7764;51.430;6.840;2024-02-15T11:40:14;6.03;;;2.80;;
15327;SDS011;7764;51.430;6.840;2024-02-15T11:42:43;6.63;;;2.60;;
15327;SDS011;7764;51.430;6.840;2024-02-15T11:45:11;8.32;;;3.60;;
15327;SDS011;7764;51.430;6.840;2024-02-15T11:47:44;7.47;;;2.93;;
15327;SDS011;7764;51.430;6.840;2024-02-15T11:50:15;6.80;;;2.78;;
15327;SDS011;7764;51.430;6.840;2024-02-15T11:52:43;6.67;;;3.00;;
15327;SDS011;7764;51.430;6.840;2024-02-15T11:55:11;8.60;;;3.10;;
15327;SDS011;7764;51.430;6.840;2024-02-15T11:57:39;8.03;;;2.53;;
15327;SDS011;7764;51.430;6.840;2024-02-15T12:00:23;8.43;;;2.80;;
15327;SDS011;7764;51.430;6.840;2024-02-15T12:03:08;7.40;;;2.88;;
15327;SDS011;7764;51.430;6.840;2024-02-15T12:05:53;6.25;;;2.95;;
15327;SDS011;7764;51.430;6.840;2024-02-15T12:08:38;5.50;;;2.40;;
15327;SDS011;7764;51.430;6.840;2024-02-15T12:11:23;8.55;;;2.83;;
15327;SDS011;7764;51.430;6.840;2024-02-15T12:14:11;6.13;;;2.33;;
15327;SDS011;7764;51.430;6.840;2024-02-15T12:17:01;6.97;;;2.80;;
15327;SDS011;7764;51.430;6.840;2024-02-15T12:19:47;6.97;;;2.80;;
15327;SDS011;7764;51.430;6.840;2024-02-15T12:22:16;7.72;;;2.67;;
15327;SDS011;7764;51.430;6.840;2024-02-15T12:24:54;5.28;;;2.38;;
15327;SDS011;7764;51.430;6.840;2024-02-15T12:27:22;6.03;;;2.45;;
15327;SDS011;7764;51.430;6.840;2024-02-15T12:29:52;6.30;;;2.78;;
15327;SDS011;7764;51.430;6.840;2024-02-15T12:32:25;5.40;;;2.35;;
15327;SDS011;7764;51.430;6.840;2024-02-15T12:34:52;7.38;;;2.60;;
15327;SDS011;7764;51.430;6.840;2024-02-15T12:37:35;6.93;;;2.47;;
15327;SDS011;7764;51.430;6.840;2024-02-15T12:40:09;6.78;;;2.30;;
15327;SDS011;7764;51.430;6.840;2024-02-15T12:42:40;7.82;;;2.63;;
15327;SDS011;7764;51.430;6.840;2024-02-15T12:45:08;8.15;;;3.38;;
15327;SDS011;7764;51.430;6.840;2024-02-15T12:47:44;5.50;;;2.53;;
15327;SDS011;7764;51.430;6.840;2024-02-15T12:50:14;9.98;;;2.97;;
15327;SDS011;7764;51.430;6.840;2024-02-15T12:52:42;7.97;;;2.30;;
15327;SDS011;7764;51.430;6.840;2024-02-15T12:55:13;7.57;;;2.63;;
15327;SDS011;7764;51.430;6.840;2024-02-15T12:57:41;8.27;;;2.85;;
15327;SDS011;7764;51.430;6.840;2024-02-15T13:00:10;6.70;;;2.50;;
15327;SDS011;7764;51.430;6.840;2024-02-15T13:02:44;6.13;;;2.50;;
15327;SDS011;7764;51.430;6.840;2024-02-15T13:05:12;5.75;;;2.30;;
15327;SDS011;7764;51.430;6.840;2024-02-15T13:07:39;6.47;;;2.22;;
15327;SDS011;7764;51.430;6.840;2024-02-15T13:10:07;5.30;;;2.40;;
15327;SDS011;7764;51.430;6.840;2024-02-15T13:12:34;5.05;;;2.40;;
15327;SDS011;7764;51.430;6.840;2024-02-15T13:15:02;5.50;;;2.20;;
15327;SDS011;7764;51.430;6.840;2024-02-15T13:17:29;5.35;;;2.50;;
15327;SDS011;7764;51.430;6.840;2024-02-15T13:19:58;7.03;;;2.47;;
15327;SDS011;7764;51.430;6.840;2024-02-15T13:22:29;7.07;;;2.50;;
15327;SDS011;7764;51.430;6.840;2024-02-15T13:24:57;4.90;;;2.15;;
15327;SDS011;7764;51.430;6.840;2024-02-15T13:27:24;6.95;;;2.38;;
15327;SDS011;7764;51.430;6.840;2024-02-15T13:29:51;5.57;;;2.08;;
15327;SDS011;7764;51.430;6.840;2024-02-15T13:32:18;7.85;;;2.63;;
15327;SDS011;7764;51.430;6.840;2024-02-15T13:34:46;6.32;;;2.33;;
15327;SDS011;7764;51.430;6.840;2024-02-15T13:37:19;8.93;;;2.90;;
15327;SDS011;7764;51.430;6.840;2024-02-15T13:39:47;6.05;;;2.42;;
15327;SDS011;7764;51.430;6.840;2024-02-15T13:42:14;4.68;;;2.20;;
15327;SDS011;7764;51.430;6.840;2024-02-15T13:44:42;7.85;;;2.20;;
15327;SDS011;7764;51.430;6.840;2024-02-15T13:47:08;5.20;;;2.10;;
15327;SDS011;7764;51.430;6.840;2024-02-15T13:49:37;5.22;;;2.35;;
15327;SDS011;7764;51.430;6.840;2024-02-15T13:52:04;3.95;;;1.92;;
15327;SDS011;7764;51.430;6.840;2024-02-15T13:54:33;6.55;;;2.53;;
15327;SDS011;7764;51.430;6.840;2024-02-15T13:57:00;5.68;;;2.17;;
15327;SDS011;7764;51.430;6.840;2024-02-15T13:59:27;8.38;;;2.58;;
15327;SDS011;7764;51.430;6.840;2024-02-15T14:01:55;6.22;;;2.30;;
15327;SDS011;7764;51.430;6.840;2024-02-15T14:04:22;8.48;;;2.15;;
15327;SDS011;7764;51.430;6.840;2024-02-15T14:06:48;5.85;;;2.08;;
15327;SDS011;7764;51.430;6.840;2024-02-15T14:09:15;5.72;;;2.20;;
15327;SDS011;7764;51.430;6.840;2024-02-15T14:11:44;8.13;;;2.20;;
15327;SDS011;7764;51.430;6.840;2024-02-15T14:14:11;6.25;;;2.10;;
15327;SDS011;7764;51.430;6.840;2024-02-15T14:16:38;5.68;;;2.10;;
15327;SDS011;7764;51.430;6.840;2024-02-15T14:19:05;5.25;;;2.10;;
15327;SDS011;7764;51.430;6.840;2024-02-15T14:21:33;4.90;;;2.20;;
15327;SDS011;7764;51.430;6.840;2024-02-15T14:24:05;8.18;;;3.40;;
15327;SDS011;7764;51.430;6.840;2024-02-15T14:26:34;5.40;;;2.33;;
15327;SDS011;7764;51.430;6.840;2024-02-15T14:29:02;6.55;;;2.28;;
15327;SDS011;7764;51.430;6.840;2024-02-15T14:31:30;5.03;;;2.25;;
15327;SDS011;7764;51.430;6.840;2024-02-15T14:34:15;5.97;;;2.35;;
15327;SDS011;7764;51.430;6.840;2024-02-15T14:36:45;7.57;;;2.97;;
15327;SDS011;7764;51.430;6.840;2024-02-15T14:39:12;6.07;;;2.30;;
15327;SDS011;7764;51.430;6.840;2024-02-15T14:41:39;6.97;;;2.42;;
15327;SDS011;7764;51.430;6.840;2024-02-15T14:44:09;6.65;;;2.40;;
15327;SDS011;7764;51.430;6.840;2024-02-15T14:46:37;4.78;;;2.17;;
15327;SDS011;7764;51.430;6.840;2024-02-15T14:49:05;6.80;;;2.20;;
15327;SDS011;7764;51.430;6.840;2024-02-15T14:51:33;7.82;;;2.38;;
15327;SDS011;7764;51.430;6.840;2024-02-15T14:54:02;6.40;;;2.30;;
15327;SDS011;7764;51.430;6.840;2024-02-15T14:56:28;5.13;;;2.63;;
15327;SDS011;7764;51.430;6.840;2024-02-15T14:58:57;5.30;;;2.35;;
15327;SDS011;7764;51.430;6.840;2024-02-15T15:01:26;6.78;;;2.33;;
15327;SDS011;7764;51.430;6.840;2024-02-15T15:03:54;9.52;;;2.33;;
15327;SDS011;7764;51.430;6.840;2024-02-15T15:06:23;4.45;;;2.30;;
15327;SDS011;7764;51.430;6.840;2024-02-15T15:09:08;6.55;;;2.33;;
15327;SDS011;7764;51.430;6.840;2024-02-15T15:11:53;6.63;;;2.40;;
15327;SDS011;7764;51.430;6.840;2024-02-15T15:14:37;6.05;;;2.47;;
15327;SDS011;7764;51.430;6.840;2024-02-15T15:17:06;8.20;;;2.35;;